Time;durP1;ratioP1;P1;durP2;ratioP2;P2;SDS_P1;SDS_P2;PMS_P1;PMS_P2;Temp;Humidity;BMP_temperature;BMP_pressure;BME280_temperature;BME280_humidity;BME280_pressure;Samples;Min_cycle;Max_cycle;Signal;HPM_P1;HPM_P2
2022/04/04 00:01:04;;;;;;;18.85;13.63;;;;;;;0.75;100.00;90867.13;4994806;28;20121;-61
2022/04/04 00:03:30;;;;;;;32.67;18.88;;;;;;;0.77;100.00;90865.03;4994596;28;20042;-61
2022/04/04 00:05:56;;;;;;;23.75;14.90;;;;;;;0.77;100.00;90869.47;4994700;28;20121;-61
2022/04/04 00:08:21;;;;;;;20.38;13.05;;;;;;;0.70;100.00;90885.41;4994869;28;20046;-61
2022/04/04 00:10:47;;;;;;;20.40;13.43;;;;;;;0.67;100.00;90880.69;4994550;28;20038;-59
2022/04/04 00:13:12;;;;;;;23.02;15.00;;;;;;;0.65;100.00;90882.75;4994299;28;20483;-64
2022/04/04 00:15:37;;;;;;;19.73;11.05;;;;;;;0.65;100.00;90893.25;4994461;28;20054;-61
2022/04/04 00:18:08;;;;;;;23.45;15.90;;;;;;;0.63;100.00;90890.06;4994404;28;20516;-61
2022/04/04 00:20:34;;;;;;;21.60;14.93;;;;;;;0.55;100.00;90888.69;4994646;28;20050;-61
2022/04/04 00:23:00;;;;;;;19.77;12.85;;;;;;;0.51;100.00;90886.84;4994236;28;20126;-61
2022/04/04 00:25:25;;;;;;;21.08;14.05;;;;;;;0.55;100.00;90899.16;4994343;28;20495;-61
2022/04/04 00:27:51;;;;;;;22.92;14.05;;;;;;;0.60;100.00;90895.78;4994339;28;20436;-61
2022/04/04 00:30:17;;;;;;;21.10;13.15;;;;;;;0.66;100.00;90892.19;4994210;28;20044;-61
2022/04/04 00:32:43;;;;;;;20.20;14.10;;;;;;;0.65;100.00;90895.84;4994109;28;20116;-61
2022/04/04 00:35:08;;;;;;;20.92;14.45;;;;;;;0.58;100.00;90893.44;4994086;28;20064;-61
2022/04/04 00:37:34;;;;;;;20.40;12.85;;;;;;;0.66;100.00;90897.44;4994130;28;20042;-61
2022/04/04 00:40:00;;;;;;;23.13;14.65;;;;;;;0.62;100.00;90892.91;4994043;28;20046;-61
2022/04/04 00:42:25;;;;;;;18.65;12.93;;;;;;;0.61;100.00;90873.81;4993889;28;20046;-61
2022/04/04 00:44:51;;;;;;;17.45;12.80;;;;;;;0.59;100.00;90888.97;4994182;28;20125;-61
2022/04/04 00:47:17;;;;;;;18.85;12.70;;;;;;;0.49;100.00;90879.22;4993938;28;20519;-61
2022/04/04 00:49:42;;;;;;;18.90;12.05;;;;;;;0.47;100.00;90877.88;4993867;28;20034;-61
2022/04/04 00:52:08;;;;;;;18.50;13.02;;;;;;;0.49;100.00;90873.22;4993755;28;20045;-61
2022/04/04 00:54:34;;;;;;;25.02;12.85;;;;;;;0.46;100.00;90884.94;4993476;28;20088;-61
2022/04/04 00:57:03;;;;;;;19.52;13.52;;;;;;;0.41;100.00;90879.69;4993485;28;20397;-60
2022/04/04 00:59:29;;;;;;;19.23;11.55;;;;;;;0.33;100.00;90869.69;4993704;28;20042;-60
2022/04/04 01:01:55;;;;;;;21.75;14.38;;;;;;;0.38;100.00;90885.41;4993569;28;20069;-59
2022/04/04 01:04:20;;;;;;;18.38;12.35;;;;;;;0.30;100.00;90881.41;4993576;28;20086;-61
2022/04/04 01:06:46;;;;;;;19.38;11.93;;;;;;;0.28;100.00;90891.31;4993534;28;20030;-61
2022/04/04 01:09:14;;;;;;;19.42;12.20;;;;;;;0.23;100.00;90896.53;4993464;28;20049;-61
2022/04/04 01:12:08;;;;;;;17.40;11.63;;;;;;;0.21;100.00;90893.38;4993662;28;20042;-60
2022/04/04 01:14:42;;;;;;;15.85;9.93;;;;;;;0.21;100.00;90892.56;4993219;28;20066;-62
2022/04/04 01:17:08;;;;;;;19.73;11.23;;;;;;;0.20;100.00;90888.38;4993288;28;20101;-62
2022/04/04 01:19:35;;;;;;;16.15;11.23;;;;;;;0.13;100.00;90883.34;4993317;28;20092;-62
2022/04/04 01:22:05;;;;;;;15.60;11.20;;;;;;;0.14;100.00;90886.72;4993171;28;20080;-62
2022/04/04 01:24:31;;;;;;;19.42;12.93;;;;;;;0.06;100.00;90880.13;4993485;28;20045;-62
2022/04/04 01:26:56;;;;;;;21.55;13.77;;;;;;;0.10;100.00;90886.44;4993409;28;20042;-62
2022/04/04 01:29:22;;;;;;;22.05;16.42;;;;;;;0.03;100.00;90883.25;4993138;28;20076;-62
2022/04/04 01:31:49;;;;;;;23.38;15.35;;;;;;;-0.01;100.00;90882.13;4992929;28;20121;-62
2022/04/04 01:34:17;;;;;;;25.35;15.98;;;;;;;-0.04;100.00;90887.88;4993048;28;20050;-62
2022/04/04 01:36:43;;;;;;;27.27;15.85;;;;;;;-0.14;100.00;90890.38;4992835;28;20043;-62
2022/04/04 01:39:08;;;;;;;25.58;15.65;;;;;;;-0.12;100.00;90899.56;4992966;28;20041;-61
2022/04/04 01:41:34;;;;;;;27.48;16.25;;;;;;;-0.11;100.00;90895.13;4992871;28;20173;-62
2022/04/04 01:43:59;;;;;;;21.90;13.43;;;;;;;-0.14;100.00;90900.84;4992734;28;20038;-61
2022/04/04 01:46:26;;;;;;;20.58;13.38;;;;;;;-0.14;100.00;90896.41;4992807;28;20034;-61
2022/04/04 01:48:56;;;;;;;23.08;14.52;;;;;;;-0.13;100.00;90905.03;4992679;28;20049;-62
2022/04/04 01:51:22;;;;;;;22.75;14.20;;;;;;;-0.20;100.00;90905.22;4992764;28;20042;-62
2022/04/04 01:53:48;;;;;;;20.58;13.90;;;;;;;-0.23;100.00;90897.06;4992656;28;20623;-61
2022/04/04 01:56:13;;;;;;;26.48;16.48;;;;;;;-0.23;100.00;90908.31;4992569;28;20639;-61
2022/04/04 01:58:40;;;;;;;25.58;15.10;;;;;;;-0.28;100.00;90904.88;4992589;28;20042;-60
2022/04/04 02:01:15;;;;;;;49.00;27.05;;;;;;;-0.35;100.00;90887.53;4992839;28;20042;-60
2022/04/04 02:03:44;;;;;;;61.00;32.28;;;;;;;-0.35;100.00;90890.13;4992419;28;20500;-61
2022/04/04 02:06:10;;;;;;;39.63;26.05;;;;;;;-0.34;100.00;90886.50;4992667;28;20046;-60
2022/04/04 02:08:36;;;;;;;17.30;12.43;;;;;;;-0.36;100.00;90880.72;4992467;28;20460;-60
2022/04/04 02:11:02;;;;;;;20.23;14.57;;;;;;;-0.33;100.00;90885.47;4992398;28;20038;-61
2022/04/04 02:13:28;;;;;;;17.13;11.38;;;;;;;-0.34;100.00;90881.25;4992184;28;20046;-61
2022/04/04 02:15:58;;;;;;;16.20;11.20;;;;;;;-0.32;100.00;90879.22;4992264;28;20084;-61
2022/04/04 02:18:24;;;;;;;15.95;11.90;;;;;;;-0.33;100.00;90882.06;4992208;28;20037;-61
2022/04/04 02:20:50;;;;;;;18.27;12.07;;;;;;;-0.33;100.00;90882.06;4992188;28;20393;-62
2022/04/04 02:23:20;;;;;;;14.70;9.73;;;;;;;-0.42;100.00;90889.53;4992109;28;20085;-62
2022/04/04 02:25:46;;;;;;;15.10;10.55;;;;;;;-0.43;100.00;90887.97;4992165;28;20476;-62
2022/04/04 02:28:12;;;;;;;15.60;9.88;;;;;;;-0.50;100.00;90883.94;4992023;28;20064;-62
2022/04/04 02:30:38;;;;;;;14.15;9.68;;;;;;;-0.52;100.00;90886.81;4992056;28;20551;-60
2022/04/04 02:33:03;;;;;;;16.67;10.32;;;;;;;-0.55;100.00;90879.47;4991908;28;20042;-61
2022/04/04 02:35:29;;;;;;;16.58;10.80;;;;;;;-0.52;100.00;90884.19;4991958;28;20023;-61
2022/04/04 02:37:55;;;;;;;15.52;9.82;;;;;;;-0.58;100.00;90879.16;4991988;28;20038;-62
2022/04/04 02:40:21;;;;;;;16.15;10.77;;;;;;;-0.65;100.00;90877.50;4992108;28;20535;-62
2022/04/04 02:42:47;;;;;;;15.32;11.25;;;;;;;-0.75;100.00;90874.78;4991784;28;20417;-62
2022/04/04 02:45:14;;;;;;;16.27;11.35;;;;;;;-0.76;100.00;90869.78;4991901;28;20027;-62
2022/04/04 02:47:40;;;;;;;18.58;12.48;;;;;;;-0.83;100.00;90867.34;4991931;28;20049;-62
2022/04/04 02:50:06;;;;;;;18.95;11.70;;;;;;;-0.89;100.00;90867.53;4991801;28;20034;-62
2022/04/04 02:52:31;;;;;;;17.80;12.07;;;;;;;-0.89;100.00;90872.75;4991676;28;20493;-62
2022/04/04 02:54:57;;;;;;;18.15;12.57;;;;;;;-0.96;100.00;90876.31;4991781;28;20034;-62
2022/04/04 02:57:23;;;;;;;19.75;12.45;;;;;;;-0.88;100.00;90871.72;4991784;28;20027;-62
2022/04/04 02:59:48;;;;;;;19.45;12.45;;;;;;;-0.96;100.00;90883.34;4991872;28;20026;-60
2022/04/04 03:02:14;;;;;;;22.10;13.98;;;;;;;-0.94;100.00;90889.16;4991658;28;20049;-60
2022/04/04 03:04:42;;;;;;;18.50;12.18;;;;;;;-0.99;100.00;90884.63;4991778;28;20130;-60
2022/04/04 03:07:09;;;;;;;19.73;12.90;;;;;;;-0.92;100.00;90880.03;4991526;28;20045;-62
2022/04/04 03:09:35;;;;;;;27.27;15.85;;;;;;;-1.06;100.00;90885.84;4991633;28;20035;-62
2022/04/04 03:12:01;;;;;;;29.95;17.05;;;;;;;-1.19;100.00;90878.34;4991569;28;20042;-62
2022/04/04 03:14:28;;;;;;;32.75;18.65;;;;;;;-1.20;100.00;90874.94;4991492;28;20038;-62
2022/04/04 03:16:53;;;;;;;30.77;18.35;;;;;;;-1.21;100.00;90870.75;4991787;28;20033;-62
2022/04/04 03:19:19;;;;;;;33.85;18.70;;;;;;;-1.33;100.00;90870.03;4994194;28;20027;-62
2022/04/04 03:21:45;;;;;;;35.58;19.27;;;;;;;-1.38;100.00;90880.41;4994074;28;20052;-62
2022/04/04 03:24:10;;;;;;;32.67;17.52;;;;;;;-1.43;100.00;90885.53;4995381;28;20038;-62
2022/04/04 03:26:36;;;;;;;27.15;16.40;;;;;;;-1.50;100.00;90877.88;4995414;28;20081;-62
2022/04/04 03:29:01;;;;;;;30.95;16.73;;;;;;;-1.48;100.00;90886.25;4995162;28;20423;-62
2022/04/04 03:31:27;;;;;;;26.05;14.95;;;;;;;-1.47;100.00;90884.44;4995293;28;20022;-62
2022/04/04 03:33:52;;;;;;;33.88;18.25;;;;;;;-1.44;100.00;90891.78;4994754;28;20105;-62
2022/04/04 03:36:18;;;;;;;29.13;18.10;;;;;;;-1.43;100.00;90893.34;4995128;28;20122;-61
2022/04/04 03:38:44;;;;;;;31.33;16.98;;;;;;;-1.42;100.00;90895.75;4995055;28;20053;-61
2022/04/04 03:41:09;;;;;;;29.25;17.63;;;;;;;-1.46;100.00;90896.44;4994891;28;20480;-62
2022/04/04 03:43:35;;;;;;;29.63;17.63;;;;;;;-1.45;100.00;90898.03;4994910;28;20030;-61
2022/04/04 03:46:01;;;;;;;29.08;17.55;;;;;;;-1.46;100.00;90888.63;4995087;28;20026;-61
2022/04/04 03:48:27;;;;;;;37.30;20.98;;;;;;;-1.40;100.00;90908.56;4995024;28;20118;-62
2022/04/04 03:50:54;;;;;;;45.08;21.27;;;;;;;-1.52;100.00;90914.63;4994891;28;20022;-61
2022/04/04 03:53:21;;;;;;;35.67;21.17;;;;;;;-1.48;100.00;90914.94;4994876;28;20037;-61
2022/04/04 03:55:47;;;;;;;37.00;20.83;;;;;;;-1.54;100.00;90913.28;4994827;28;20027;-61
2022/04/04 03:58:13;;;;;;;39.63;20.80;;;;;;;-1.59;100.00;90919.19;4994795;28;20031;-61
2022/04/04 04:00:39;;;;;;;39.35;21.30;;;;;;;-1.68;100.00;90925.84;4994798;28;20403;-61
2022/04/04 04:03:06;;;;;;;40.20;21.60;;;;;;;-1.62;100.00;90932.72;4994574;28;20034;-61
2022/04/04 04:05:32;;;;;;;42.40;22.60;;;;;;;-1.64;100.00;90937.38;4994733;28;20107;-62
2022/04/04 04:07:57;;;;;;;36.67;21.48;;;;;;;-1.59;100.00;90929.63;4994662;28;20477;-61
2022/04/04 04:10:23;;;;;;;42.55;24.45;;;;;;;-1.50;100.00;90927.44;4994621;28;20602;-61
2022/04/04 04:12:49;;;;;;;58.08;32.35;;;;;;;-1.58;100.00;90936.47;4994480;28;20496;-61
2022/04/04 04:15:24;;;;;;;39.58;23.00;;;;;;;-1.54;100.00;90932.34;4994413;28;20473;-60
2022/04/04 04:17:52;;;;;;;42.10;25.23;;;;;;;-1.48;100.00;90940.25;4994433;28;20481;-60
2022/04/04 04:20:22;;;;;;;39.80;23.77;;;;;;;-1.38;100.00;90951.66;4994307;28;20065;-60
2022/04/04 04:23:01;;;;;;;44.28;22.90;;;;;;;-1.36;100.00;90949.59;4994246;28;20129;-60
2022/04/04 04:25:28;;;;;;;43.05;23.50;;;;;;;-1.23;100.00;90962.34;4994357;28;20485;-61
2022/04/04 04:27:54;;;;;;;38.80;21.27;;;;;;;-1.19;100.00;90961.84;4994219;28;20160;-60
2022/04/04 04:30:20;;;;;;;35.10;21.00;;;;;;;-1.14;100.00;90959.31;4993104;28;20054;-61
2022/04/04 04:32:49;;;;;;;64.78;32.88;;;;;;;-1.06;100.00;90961.53;4994043;28;20058;-61
2022/04/04 04:35:15;;;;;;;54.72;24.95;;;;;;;-1.04;100.00;90960.28;4994293;28;20034;-61
2022/04/04 04:37:42;;;;;;;44.38;27.80;;;;;;;-0.98;100.00;90958.53;4994095;28;20516;-61
2022/04/04 04:40:08;;;;;;;41.70;24.77;;;;;;;-0.86;100.00;90964.44;4994022;28;20022;-61
2022/04/04 04:42:35;;;;;;;37.70;23.42;;;;;;;-0.75;100.00;90963.56;4993792;28;20034;-61
2022/04/04 04:45:02;;;;;;;40.95;24.52;;;;;;;-0.59;100.00;90964.56;4993924;28;20030;-61
2022/04/04 04:47:28;;;;;;;57.72;33.53;;;;;;;-0.01;100.00;90965.81;4993884;28;20121;-61
2022/04/04 04:49:54;;;;;;;50.78;29.45;;;;;;;0.37;100.00;90969.38;4993956;28;20078;-61
2022/04/04 04:52:20;;;;;;;42.05;23.75;;;;;;;0.72;100.00;90967.09;4994016;28;20128;-61
2022/04/04 04:54:45;;;;;;;38.63;23.67;;;;;;;0.89;100.00;90982.72;4994100;28;20030;-61
2022/04/04 04:57:11;;;;;;;59.55;34.22;;;;;;;0.90;100.00;90964.13;4995512;28;20161;-61
2022/04/04 04:59:36;;;;;;;37.53;23.48;;;;;;;1.20;100.00;90975.88;4999623;28;20460;-61
2022/04/04 05:02:02;;;;;;;47.63;27.70;;;;;;;1.17;100.00;90971.94;5004415;28;20034;-64
2022/04/04 05:04:27;;;;;;;21.67;14.20;;;;;;;1.65;100.00;90985.09;5005665;28;20026;-61
2022/04/04 05:06:53;;;;;;;49.30;28.58;;;;;;;2.29;100.00;90990.13;5004274;28;20038;-61
2022/04/04 05:09:18;;;;;;;26.95;17.33;;;;;;;3.20;100.00;90994.81;5001657;28;20033;-61
2022/04/04 05:11:44;;;;;;;96.32;54.90;;;;;;;3.81;100.00;91000.84;4994644;28;20034;-61
2022/04/04 05:14:15;;;;;;;35.75;22.05;;;;;;;3.89;100.00;90996.88;4995879;28;20043;-62
2022/04/04 05:16:42;;;;;;;34.42;20.98;;;;;;;4.75;100.00;90991.31;4993223;28;20683;-61
2022/04/04 05:19:07;;;;;;;38.50;23.73;;;;;;;4.28;100.00;91004.94;4993814;28;20496;-61
2022/04/04 05:21:34;;;;;;;39.92;24.45;;;;;;;3.57;100.00;90994.53;4993597;28;20045;-61
2022/04/04 05:24:00;;;;;;;37.78;23.70;;;;;;;3.79;100.00;91002.94;4993836;28;20034;-61
2022/04/04 05:26:25;;;;;;;37.83;22.27;;;;;;;4.69;100.00;91002.13;4991865;28;20417;-61
2022/04/04 05:28:51;;;;;;;35.13;21.48;;;;;;;5.29;98.46;91008.13;4993660;28;20034;-61
2022/04/04 05:31:16;;;;;;;31.42;19.48;;;;;;;6.17;90.50;91002.69;4993713;28;20070;-61
2022/04/04 05:33:41;;;;;;;29.90;19.40;;;;;;;7.05;82.58;91001.38;4993314;28;20503;-61
2022/04/04 05:36:07;;;;;;;24.75;17.23;;;;;;;7.53;76.06;91003.88;4993353;28;20026;-61
2022/04/04 05:38:33;;;;;;;27.45;18.08;;;;;;;8.25;74.25;91006.16;4996280;28;20038;-61
2022/04/04 05:40:58;;;;;;;40.70;25.30;;;;;;;8.60;70.44;91004.75;4993473;28;20049;-61
2022/04/04 05:43:24;;;;;;;33.28;21.55;;;;;;;8.29;68.04;91001.84;4993503;28;20096;-61
2022/04/04 05:45:49;;;;;;;42.13;25.85;;;;;;;8.47;69.17;91008.19;4996036;28;20061;-61
2022/04/04 05:48:15;;;;;;;35.40;21.95;;;;;;;8.93;66.85;91016.06;4986822;28;20054;-62
2022/04/04 05:50:41;;;;;;;26.10;17.45;;;;;;;10.02;64.45;91022.97;4973759;28;20114;-62
2022/04/04 05:53:06;;;;;;;30.92;21.30;;;;;;;10.24;59.75;91027.50;4973439;28;20436;-62
2022/04/04 05:55:31;;;;;;;26.55;18.27;;;;;;;10.09;57.84;91025.97;4973012;28;20022;-61
2022/04/04 05:57:57;;;;;;;25.80;17.88;;;;;;;8.96;64.18;91032.16;4972742;28;20026;-61
2022/04/04 06:00:22;;;;;;;101.13;59.10;;;;;;;9.15;63.59;91041.88;4972533;28;20030;-62
2022/04/04 06:02:48;;;;;;;27.05;18.65;;;;;;;9.48;62.04;91038.00;4972362;28;20113;-61
2022/04/04 06:05:14;;;;;;;24.25;16.88;;;;;;;9.34;61.70;91036.47;4972769;28;20113;-61
2022/04/04 06:07:41;;;;;;;22.48;15.55;;;;;;;9.28;59.42;91033.09;4972982;28;20037;-61
2022/04/04 06:10:08;;;;;;;22.13;12.93;;;;;;;9.52;59.58;91035.53;4973012;28;20027;-61
2022/04/04 06:12:37;;;;;;;17.98;13.30;;;;;;;10.34;56.28;91037.13;4972195;28;20042;-62
2022/04/04 06:15:03;;;;;;;21.48;14.68;;;;;;;10.16;57.04;91034.31;4972596;28;20050;-62
2022/04/04 06:17:29;;;;;;;19.83;14.93;;;;;;;11.00;56.62;91036.19;4972135;28;20563;-62
2022/04/04 06:19:55;;;;;;;19.98;14.55;;;;;;;10.69;57.96;91038.84;4972456;28;20038;-62
2022/04/04 06:22:22;;;;;;;23.60;15.40;;;;;;;10.39;54.91;91015.69;4972535;28;20050;-62
2022/04/04 06:24:48;;;;;;;19.98;15.35;;;;;;;8.84;58.92;91023.16;4984592;28;20023;-62
2022/04/04 06:27:15;;;;;;;21.70;15.48;;;;;;;7.88;64.58;91023.72;4991645;28;20566;-62
2022/04/04 06:29:41;;;;;;;25.80;16.02;;;;;;;8.16;65.14;91023.81;4992091;28;20423;-62
2022/04/04 06:32:07;;;;;;;25.20;17.50;;;;;;;7.72;68.12;91009.16;4991573;28;20030;-61
2022/04/04 06:34:32;;;;;;;22.45;16.48;;;;;;;8.73;64.95;91027.84;4991653;28;20408;-62
2022/04/04 06:36:58;;;;;;;22.90;16.13;;;;;;;10.41;58.35;91018.84;4991490;28;20045;-62
2022/04/04 06:39:23;;;;;;;22.90;13.60;;;;;;;11.35;54.90;91029.06;4991787;28;20026;-62
2022/04/04 06:41:50;;;;;;;17.95;12.90;;;;;;;12.23;51.58;91012.84;4991089;28;20030;-62
2022/04/04 06:44:16;;;;;;;18.17;14.05;;;;;;;11.50;51.83;91030.50;4991357;28;20150;-62
2022/04/04 06:46:42;;;;;;;16.67;13.43;;;;;;;12.58;51.97;91026.13;4991449;28;20058;-62
2022/04/04 06:49:07;;;;;;;14.98;12.77;;;;;;;12.70;50.44;91010.22;4991625;28;20030;-62
2022/04/04 06:51:34;;;;;;;33.38;24.15;;;;;;;11.55;56.39;91026.94;4991232;28;20030;-62
2022/04/04 06:54:03;;;;;;;16.30;11.77;;;;;;;11.93;53.05;91029.78;4990710;28;20576;-62
2022/04/04 06:56:28;;;;;;;49.15;32.40;;;;;;;13.42;51.14;91033.38;4991495;28;20037;-65
2022/04/04 06:58:54;;;;;;;53.85;32.03;;;;;;;12.59;53.34;91033.03;4991657;28;20026;-62
2022/04/04 07:01:19;;;;;;;21.33;11.80;;;;;;;12.81;50.80;91038.16;4969441;28;20114;-64
2022/04/04 07:03:45;;;;;;;94.70;58.25;;;;;;;12.79;52.55;91026.25;4972028;28;20026;-62
2022/04/04 07:06:10;;;;;;;124.45;79.22;;;;;;;11.96;54.27;91031.84;4971773;28;20517;-62
2022/04/04 07:08:36;;;;;;;13.80;11.18;;;;;;;10.40;57.91;91036.66;4990384;28;20038;-62
2022/04/04 07:11:03;;;;;;;13.98;11.10;;;;;;;10.31;59.71;91022.56;4990820;28;20038;-64
2022/04/04 07:13:31;;;;;;;12.98;8.57;;;;;;;11.45;54.07;91037.88;4990918;28;20053;-61
2022/04/04 07:15:58;;;;;;;13.70;9.45;;;;;;;11.03;55.50;91030.22;4990320;28;20026;-61
2022/04/04 07:18:23;;;;;;;20.92;13.07;;;;;;;10.81;59.68;91038.28;4991305;28;20444;-59
2022/04/04 07:20:49;;;;;;;10.45;8.48;;;;;;;11.08;56.56;91046.09;4989417;28;20027;-61
2022/04/04 07:23:14;;;;;;;14.25;9.65;;;;;;;9.87;62.23;91044.56;4990895;28;20033;-61
2022/04/04 07:25:40;;;;;;;12.65;9.55;;;;;;;9.17;61.90;91037.06;4990696;28;20023;-62
2022/04/04 07:28:06;;;;;;;20.17;10.70;;;;;;;8.54;67.59;91046.50;4991049;28;20034;-62
2022/04/04 07:30:32;;;;;;;12.43;9.85;;;;;;;8.73;66.50;91038.47;4991028;28;20105;-63
2022/04/04 07:33:01;;;;;;;10.88;9.00;;;;;;;9.66;64.28;91044.25;4990657;28;20600;-62
2022/04/04 07:35:27;;;;;;;11.63;8.65;;;;;;;8.67;63.69;91044.91;4990716;28;20038;-61
2022/04/04 07:37:52;;;;;;;20.67;10.13;;;;;;;9.03;62.50;91042.41;4990879;28;20076;-62
2022/04/04 07:40:20;;;;;;;13.45;9.60;;;;;;;10.09;60.77;91054.41;4990723;28;20030;-62
2022/04/04 07:42:46;;;;;;;9.40;7.30;;;;;;;10.08;63.66;91052.84;4990585;28;20031;-62
2022/04/04 07:45:56;;;;;;;17.15;8.32;;;;;;;12.72;52.61;91036.59;4987326;28;20030;-66
2022/04/04 07:48:25;;;;;;;17.63;11.00;;;;;;;12.51;54.12;91055.19;4964656;28;20101;-62
2022/04/04 07:50:51;;;;;;;16.50;10.70;;;;;;;12.36;51.69;91042.34;4970370;28;20026;-62
2022/04/04 07:53:17;;;;;;;14.52;9.80;;;;;;;13.96;51.57;91041.53;4990039;28;20034;-61
2022/04/04 07:55:43;;;;;;;19.30;14.30;;;;;;;13.71;48.59;91055.84;4989130;28;20034;-61
2022/04/04 07:58:09;;;;;;;37.50;24.90;;;;;;;12.45;48.77;91061.75;4990121;28;20026;-62
2022/04/04 08:00:35;;;;;;;17.95;12.52;;;;;;;10.87;56.96;91065.53;4990174;28;20023;-61
2022/04/04 08:03:01;;;;;;;15.63;9.95;;;;;;;11.08;60.36;91061.28;4982532;28;20536;-61
2022/04/04 08:05:26;;;;;;;14.38;10.30;;;;;;;10.88;61.67;91061.78;4981387;28;20026;-61
2022/04/04 08:07:52;;;;;;;14.77;9.07;;;;;;;10.79;61.38;91057.22;4973360;28;20031;-63
2022/04/04 08:10:18;;;;;;;26.63;17.13;;;;;;;9.94;64.09;91060.09;4973944;28;20038;-63
2022/04/04 08:12:49;;;;;;;19.60;10.88;;;;;;;10.84;64.77;91053.66;4972655;28;20082;-62
2022/04/04 08:15:15;;;;;;;35.45;13.18;;;;;;;11.00;59.64;91060.13;4973404;28;20454;-61
2022/04/04 08:17:40;;;;;;;20.88;7.85;;;;;;;12.33;58.84;91041.09;4974497;28;20061;-61
2022/04/04 08:20:08;;;;;;;9.70;7.07;;;;;;;12.52;54.07;91038.06;4974513;28;20030;-61
2022/04/04 08:22:39;;;;;;;16.92;11.55;;;;;;;10.86;57.77;91046.13;4973444;28;20043;-61
2022/04/04 08:25:06;;;;;;;19.00;13.32;;;;;;;11.60;55.31;91043.53;4984038;28;20018;-63
2022/04/04 08:27:32;;;;;;;23.55;11.65;;;;;;;11.89;56.31;91042.97;4992365;28;20030;-62
2022/04/04 08:29:57;;;;;;;24.38;16.40;;;;;;;13.01;56.36;91038.56;4992571;28;20823;-63
2022/04/04 08:32:23;;;;;;;16.10;8.50;;;;;;;12.33;56.47;91019.75;4993008;28;20096;-63
2022/04/04 08:34:48;;;;;;;16.73;10.65;;;;;;;13.40;52.84;91022.22;4993089;28;20034;-62
2022/04/04 08:37:17;;;;;;;15.43;9.95;;;;;;;15.13;47.01;91023.44;4992280;28;20484;-63
2022/04/04 08:39:47;;;;;;;31.05;20.48;;;;;;;14.42;51.16;91014.88;4992587;28;20026;-63
2022/04/04 08:42:15;;;;;;;22.58;16.50;;;;;;;15.07;50.06;91018.63;4992720;28;20033;-63
2022/04/04 08:44:43;;;;;;;16.15;6.50;;;;;;;15.99;46.08;91008.13;4992561;28;20621;-60
2022/04/04 08:47:08;;;;;;;7.28;5.90;;;;;;;14.73;45.76;91011.78;4992235;28;20053;-60
2022/04/04 08:49:34;;;;;;;9.52;5.95;;;;;;;13.24;50.68;91010.50;4992814;28;20511;-60
2022/04/04 08:51:59;;;;;;;30.75;8.38;;;;;;;11.72;55.04;91015.50;4991944;28;20022;-60
2022/04/04 08:54:25;;;;;;;8.45;6.53;;;;;;;11.39;55.69;91008.72;4991881;28;20034;-60
2022/04/04 08:56:50;;;;;;;29.27;10.30;;;;;;;11.09;60.94;91015.69;4992717;28;20065;-60
2022/04/04 08:59:16;;;;;;;10.52;7.60;;;;;;;12.48;54.29;91003.25;4982717;28;20031;-61
2022/04/04 09:01:41;;;;;;;28.60;9.52;;;;;;;12.39;56.23;91001.69;4981910;28;20035;-60
2022/04/04 09:04:06;;;;;;;56.58;11.27;;;;;;;11.96;59.39;91005.16;4992729;28;20472;-60
2022/04/04 09:06:52;;;;;;;28.92;11.35;;;;;;;13.33;56.09;90997.91;4991868;28;20022;-61
2022/04/04 09:09:25;;;;;;;21.52;9.52;;;;;;;13.86;53.56;90995.66;4992742;28;20031;-61
2022/04/04 09:12:11;;;;;;;15.88;9.98;;;;;;;13.95;52.69;91002.53;4992646;28;20041;-61
2022/04/04 09:14:46;;;;;;;35.08;7.47;;;;;;;14.18;48.40;90988.78;4991201;28;20160;-60
2022/04/04 09:17:13;;;;;;;55.95;14.90;;;;;;;14.10;54.82;90998.47;4991643;28;20026;-61
2022/04/04 09:19:39;;;;;;;23.25;14.45;;;;;;;15.04;46.70;90993.28;4992594;28;20504;-60
2022/04/04 09:22:12;;;;;;;11.60;4.97;;;;;;;13.90;46.60;90989.34;4986337;28;20018;-61
2022/04/04 09:24:47;;;;;;;12.82;5.70;;;;;;;13.79;50.76;90990.84;4975869;28;20157;-61
2022/04/04 09:27:18;;;;;;;19.23;10.98;;;;;;;14.33;47.99;90974.81;4991451;28;20042;-61
2022/04/04 09:29:45;;;;;;;5.13;3.55;;;;;;;14.78;46.85;90987.44;4991542;28;20818;-61
2022/04/04 09:32:14;;;;;;;9.90;4.72;;;;;;;13.61;51.08;90971.47;4992309;28;20111;-60
2022/04/04 09:34:49;;;;;;;39.80;7.35;;;;;;;14.06;47.85;90970.81;4991684;28;20433;-61
2022/04/04 09:37:15;;;;;;;7.50;4.05;;;;;;;13.59;47.80;90971.03;4985228;28;20074;-61
2022/04/04 09:39:41;;;;;;;11.13;4.03;;;;;;;14.07;46.92;90962.47;4972122;28;20023;-56
2022/04/04 09:42:28;;;;;;;5.65;4.10;;;;;;;12.14;49.80;90964.06;4971786;28;20101;-61
2022/04/04 09:45:13;;;;;;;7.65;4.57;;;;;;;11.87;53.98;90959.09;4972230;28;20084;-61
2022/04/04 09:48:04;;;;;;;22.98;8.23;;;;;;;10.36;55.74;90961.25;4972223;28;20558;-61
2022/04/04 09:50:42;;;;;;;8.85;4.28;;;;;;;10.72;55.04;90952.31;4970641;28;20035;-56
2022/04/04 09:53:19;;;;;;;8.02;5.10;;;;;;;11.80;56.04;90954.22;4971852;28;20501;-61
2022/04/04 09:55:45;;;;;;;4.80;4.18;;;;;;;11.97;54.34;90951.53;4971975;28;20102;-61
2022/04/04 09:58:14;;;;;;;17.52;6.68;;;;;;;12.55;50.55;90952.81;4971989;28;20119;-60
2022/04/04 10:00:42;;;;;;;15.65;6.15;;;;;;;12.58;50.11;90956.72;4972357;28;20512;-62
2022/04/04 10:03:12;;;;;;;11.95;6.60;;;;;;;12.61;51.10;90940.06;4972562;28;20037;-64
2022/04/04 10:05:40;;;;;;;55.33;8.90;;;;;;;12.12;48.51;90947.59;4971579;28;20027;-61
2022/04/04 10:08:07;;;;;;;31.35;12.38;;;;;;;12.05;49.83;90941.97;4972331;28;20070;-64
2022/04/04 10:10:33;;;;;;;32.33;11.75;;;;;;;11.78;51.86;90934.28;4970473;28;20023;-65
2022/04/04 10:12:59;;;;;;;88.22;9.45;;;;;;;12.34;51.83;90937.84;5129297;23;20058;-69
2022/04/04 10:15:26;;;;;;;17.67;8.70;;;;;;;12.86;50.77;90939.19;5133861;23;20667;-69
2022/04/04 10:17:53;;;;;;;9.48;4.93;;;;;;;12.73;51.11;90937.53;5006366;28;20037;-69
2022/04/04 10:20:20;;;;;;;7.03;4.50;;;;;;;12.15;51.27;90928.31;4991413;28;20446;-69
2022/04/04 10:25:25;;;;;;;4.88;3.90;;;;;;;13.12;46.11;90935.63;5131283;23;20077;-68
2022/04/04 10:27:52;;;;;;;4.93;3.90;;;;;;;13.29;48.96;90922.19;4997331;28;20170;-68
2022/04/04 10:30:19;;;;;;;21.05;4.45;;;;;;;12.80;48.42;90916.47;5010739;28;20038;-68
2022/04/04 10:32:53;;;;;;;12.40;4.35;;;;;;;11.82;48.27;90920.03;5009675;28;20101;-70
2022/04/04 10:35:24;;;;;;;10.38;5.03;;;;;;;13.36;47.71;90924.31;5010408;28;20030;-69
2022/04/04 10:37:50;;;;;;;9.77;3.83;;;;;;;13.56;46.33;90922.75;5010841;28;20565;-67
2022/04/04 10:40:22;;;;;;;8.30;3.75;;;;;;;14.53;43.51;90925.84;5010394;28;20054;-66
2022/04/04 10:43:15;;;;;;;7.88;3.67;;;;;;;13.34;47.63;90921.19;5010665;28;20053;-67
2022/04/04 10:45:58;;;;;;;13.27;3.95;;;;;;;13.60;46.25;90921.78;5010509;28;20030;-67
2022/04/04 10:48:29;;;;;;;7.18;3.50;;;;;;;14.22;46.06;90914.81;5010584;28;20030;-69
2022/04/04 10:51:01;;;;;;;3.90;3.60;;;;;;;13.99;44.53;90917.84;5010705;28;20491;-69
2022/04/04 10:53:57;;;;;;;9.60;5.40;;;;;;;12.51;49.51;90914.53;5010811;28;20052;-69
2022/04/04 10:56:30;;;;;;;15.82;6.45;;;;;;;13.27;48.36;90902.25;5010495;28;20022;-68
2022/04/04 10:59:14;;;;;;;16.33;8.27;;;;;;;13.23;46.26;90896.75;5010791;28;20218;-69
2022/04/04 11:01:42;;;;;;;15.98;5.88;;;;;;;13.04;47.76;90904.38;5010433;28;20087;-68
2022/04/04 11:04:29;;;;;;;79.35;12.57;;;;;;;13.73;46.45;90902.03;5010075;28;20033;-69
2022/04/04 11:09:57;;;;;;;22.60;14.30;;;;;;;13.50;46.17;90890.09;4994663;28;20061;-68
2022/04/04 11:12:25;;;;;;;31.48;10.15;;;;;;;13.11;46.00;90886.75;4993942;28;20512;-68
2022/04/04 11:15:01;;;;;;;20.85;9.85;;;;;;;12.78;47.84;90883.97;5002004;28;20030;-69
2022/04/04 11:17:32;;;;;;;20.42;9.35;;;;;;;12.04;48.45;90884.41;5001815;28;20113;-68
2022/04/04 11:20:31;;;;;;;37.40;9.77;;;;;;;12.12;51.13;90886.25;5010938;28;20446;-68
2022/04/04 11:22:58;;;;;;;18.77;8.20;;;;;;;12.00;50.36;90878.16;5010041;28;20101;-68
2022/04/04 11:25:29;;;;;;;16.40;7.07;;;;;;;11.63;49.60;90880.38;5010084;28;20057;-68
2022/04/04 11:27:57;;;;;;;9.32;6.40;;;;;;;10.94;51.93;90866.28;5007403;28;20026;-67